• Join FlightAware (Why Join?)
  • Login
  • US Flag 
08:37PM EDT


 

Airport Tracker/Info


-or-


 

Live Flight TrackerFlight Track Log ✈ UAL1609 ✈ 05-Jul-2013 ✈ KIAH - KSFO

Flight Track Log - Related Links

Times and Time Zones

All times are in EDT time to prevent confusion due to time zone crossing. See the UAL1609 flight status page for this flight to view local times or setup timezone preferences in your user account.

Time Position Orientation Groundspeed Altitude Reporting Facility
EDT Latitude Longitude Course Direction KTS MPH feet Rate Location/Type
08:35PM 29.9528 -95.3375 291° West 180 207 1,000  Level Houston Center
08:36PM 29.9058 -95.3769 216° Southwest 244 281 2,500 1,200 Climbing Houston Center
08:37PM 29.8869 -95.4014 228° Southwest 245 282 2,900 1,920 Climbing Houston Center
08:38PM 29.8364 -95.4678 229° Southwest 276 318 5,600 2,880 Climbing Houston Center
08:39PM 30.0413 -95.8955 276° West  Level FlightAware Approximate
08:39PM 29.8250 -95.5781 263° West 292 336 8,900  Level Houston Center
08:40PM 30.0615 -96.0346 291° West  Level FlightAware Approximate
08:40PM 29.8614 -95.6658 296° West 301 346 10,800  Level Houston Center
08:41PM 29.9039 -95.7672 296° West 347 399 12,400 1,860 Climbing Houston Center
08:42PM 29.9483 -95.8756 295° West 372 428 14,600 2,220 Climbing Houston Center
08:43PM 29.9947 -95.9878 296° West 385 443 17,000 1,980 Climbing Houston Center
08:44PM 30.0397 -96.0961 296° West 388 447 18,700 1,500 Climbing Houston Center
08:45PM 30.0869 -96.2119 295° West 398 458 20,100 1,260 Climbing Houston Center
08:46PM 30.1192 -96.3733 283° West 432 497 21,400 1,320 Climbing Houston Center
08:47PM 30.1381 -96.5019 280° West 445 512 22,800 1,320 Climbing Houston Center
08:48PM 30.1589 -96.6483 279° West 455 524 24,200 1,320 Climbing Houston Center
08:49PM 30.1842 -96.7953 281° West 460 529 25,600 1,260 Climbing Houston Center
08:50PM 30.2203 -96.9681 284° West 467 537 26,900 1,380 Climbing Houston Center
08:51PM 30.2528 -97.1178 284° West 472 543 28,500 1,560 Climbing Houston Center
08:52PM 30.2836 -97.2642 284° West 464 534 30,100 1,260 Climbing Houston Center
08:53PM 30.3139 -97.4111 283° West 463 533 31,200 1,020 Climbing Houston Center
08:54PM 30.3453 -97.5619 284° West 472 543 32,300 960 Climbing Houston Center
08:55PM 30.3767 -97.7131 284° West 475 547 33,200 780 Climbing Houston Center
08:56PM 30.4064 -97.8653 283° West 477 549 34,000 360 Climbing Houston Center
08:57PM 30.4389 -98.0206 284° West 487 560 34,000  Level Houston Center
08:58PM 30.4700 -98.1750 283° West 487 560 34,000  Level Houston Center
08:59PM 30.5003 -98.3272 283° West 481 554 34,000  Level Houston Center
09:00PM 30.5306 -98.4806 283° West 483 556 34,000  Level Houston Center
09:01PM 30.5603 -98.6339 283° West 481 554 34,000  Level Houston Center
09:02PM 30.5906 -98.7858 283° West 481 554 34,000  Level Houston Center
09:03PM 30.6214 -98.9375 283° West 478 550 34,000  Level Houston Center
09:04PM 30.6517 -99.0897 283° West 479 551 34,000  Level Houston Center
09:05PM 30.6803 -99.2378 283° West 481 554 34,000  Level Houston Center
09:06PM 30.7133 -99.4181 282° West 478 550 34,000  Level Houston Center
09:07PM 30.7417 -99.5678 282° West 478 550 34,000  Level Houston Center
09:08PM 30.7700 -99.7189 282° West 481 554 34,000  Level Houston Center
09:09PM 30.7989 -99.8686 283° West 482 555 34,000  Level Houston Center
09:10PM 30.8269 -100.0200 282° West 494 568 34,000  Level Houston Center
09:11PM 30.8572 -100.1667 284° West 470 541 34,000  Level Houston Center
09:12PM 30.8925 -100.3131 286° West 489 563 34,000  Level Houston Center
09:14PM 30.9306 -100.4558 287° West 473 544 34,000  Level Houston Center
09:15PM 30.9744 -100.6267 287° West 447 514 34,000  Level Houston Center
09:16PM 31.0089 -100.7758 285° West 468 539 34,000  Level Houston Center
09:17PM 31.0453 -100.9228 286° West 474 545 34,000  Level Houston Center
09:18PM 31.0803 -101.0683 286° West 469 540 34,000  Level Houston Center
09:19PM 31.1164 -101.2139 286° West 468 539 34,000  Level Houston Center
09:20PM 31.1522 -101.3558 286° West 466 536 34,000  Level Houston Center
09:21PM 31.1853 -101.4983 285° West 460 529 34,000  Level Houston Center
09:22PM 31.2194 -101.6461 285° West 465 535 34,000  Level Houston Center
09:23PM 31.2617 -101.8206 286° West 467 537 34,000  Level Houston Center
09:24PM 31.2978 -101.9672 286° West 469 540 34,000  Level Houston Center
09:25PM 31.3331 -102.1125 286° West 470 541 34,000  Level Houston Center
09:26PM 31.3731 -102.2653 287° West 490 564 34,000  Level Houston Center
09:27PM 31.4006 -102.4072 283° West 486 559 34,000  Level Houston Center
09:28PM 31.4325 -102.5536 284° West 474 545 34,000  Level Houston Center
09:29PM 31.4742 -102.7300 286° West 472 543 34,000  Level Houston Center
09:30PM 31.5075 -102.8800 285° West 474 545 34,000  Level Houston Center
09:31PM 31.5408 -103.0294 285° West 476 548 34,000  Level Houston Center
09:32PM 31.5750 -103.1792 285° West 476 548 34,000  Level Houston Center
09:33PM 31.6086 -103.3283 285° West 475 547 34,000  Level Houston Center
09:34PM 31.6494 -103.5169 284° West 476 548 34,000  Level Albuquerque Center
09:35PM 31.6817 -103.6678 284° West 477 549 34,000  Level Albuquerque Center
09:36PM 31.7164 -103.8164 285° West 477 549 34,000  Level Albuquerque Center
09:37PM 31.7553 -103.9967 284° West 477 549 34,000  Level Albuquerque Center
09:38PM 31.7881 -104.1464 284° West 476 548 34,000  Level Albuquerque Center
09:39PM 31.8214 -104.2950 285° West 473 544 34,000 -60 Level Albuquerque Center
09:40PM 31.8533 -104.4439 284° West 472 543 33,900  Descending Albuquerque Center
09:41PM 31.8847 -104.5928 284° West 472 543 34,000  Climbing Albuquerque Center
09:42PM 31.9161 -104.7372 284° West 456 525 34,000  Level Albuquerque Center
09:43PM 31.9475 -104.8831 284° West 458 527 34,000  Level Albuquerque Center
09:44PM 31.9783 -105.0306 284° West 464 534 34,000  Level Albuquerque Center
09:45PM 32.0081 -105.1769 284° West 463 533 34,000 480 Level Albuquerque Center
09:46PM 32.0453 -105.3569 284° West 472 543 35,000 960 Climbing Albuquerque Center
09:47PM 32.0750 -105.5047 283° West 468 539 36,000 480 Climbing Albuquerque Center
09:48PM 32.1067 -105.6539 284° West 470 541 36,000  Level Albuquerque Center
09:49PM 32.1369 -105.8039 283° West 472 543 36,000  Level Albuquerque Center
09:51PM 32.1683 -105.9617 283° West 469 540 36,000  Level Albuquerque Center
09:52PM 32.1969 -106.1028 284° West 471 542 36,000  Level Albuquerque Center
09:53PM 32.2278 -106.2583 283° West 474 545 36,000  Level Albuquerque Center
09:54PM 32.2575 -106.4094 283° West 475 547 36,000  Level Albuquerque Center
09:55PM 32.2872 -106.5603 283° West 472 543 36,000  Level Albuquerque Center
09:56PM 32.3167 -106.7108 283° West 471 542 36,000  Level Albuquerque Center
09:57PM 32.3508 -106.8861 283° West 468 539 36,000  Level Albuquerque Center
09:58PM 32.3800 -107.0381 283° West 474 545 36,000  Level Albuquerque Center
09:59PM 32.4094 -107.1867 283° West 472 543 36,000  Level Albuquerque Center
10:00PM 32.4375 -107.3414 282° West 476 548 36,000  Level Albuquerque Center
10:01PM 32.4636 -107.4939 282° West 475 547 36,000  Level Albuquerque Center
10:02PM 32.4892 -107.6350 282° West 474 545 36,000  Level Albuquerque Center
10:03PM 32.5225 -107.8161 282° West 471 542 36,000  Level Albuquerque Center
10:04PM 32.5503 -107.9675 282° West 471 542 36,000  Level Albuquerque Center
10:05PM 32.5778 -108.1189 282° West 470 541 36,000  Level Albuquerque Center
10:06PM 32.6050 -108.2703 282° West 470 541 36,000  Level Albuquerque Center
10:07PM 32.6175 -108.4253 276° West 474 545 36,000  Level Albuquerque Center
10:08PM 32.6186 -108.5817 271° West 476 548 36,000  Level Albuquerque Center
10:09PM 32.6183 -108.7375 270° West 473 544 36,000  Level Albuquerque Center
10:10PM 32.6239 -108.8936 272° West 474 545 36,000  Level Albuquerque Center
10:11PM 32.6267 -109.0475 271° West 470 541 36,000  Level Albuquerque Center
10:12PM 32.6481 -109.2008 279° West 469 540 36,000  Level Albuquerque Center
10:13PM 32.6867 -109.3497 287° West 470 541 36,000  Level Albuquerque Center
10:14PM 32.7289 -109.5292 286° West 471 542 36,000  Level Albuquerque Center
10:15PM 32.7656 -109.6786 286° West 472 543 36,000  Level Albuquerque Center
10:16PM 32.8011 -109.8306 286° West 476 548 36,000  Level Albuquerque Center
10:17PM 32.8356 -109.9819 285° West 476 548 36,000  Level Albuquerque Center
10:18PM 32.8728 -110.1417 286° West 476 548 36,000  Level Albuquerque Center
10:19PM 32.9067 -110.2925 285° West 474 545 36,000  Level Albuquerque Center
10:20PM 32.9408 -110.4442 285° West 474 545 36,000  Level Albuquerque Center
10:21PM 32.9750 -110.5942 285° West 472 543 36,000  Level Albuquerque Center
10:22PM 33.0089 -110.7442 285° West 470 541 36,000  Level Albuquerque Center
10:23PM 33.0417 -110.8950 285° West 470 541 36,000  Level Albuquerque Center
10:24PM 33.0750 -111.0450 285° West 469 540 36,000  Level Albuquerque Center
10:25PM 33.1100 -111.1967 285° West 472 543 36,000  Level Albuquerque Center
10:26PM 33.1425 -111.3506 284° West 477 549 36,000  Level Albuquerque Center
10:27PM 33.1750 -111.5036 284° West 475 547 36,000  Level Albuquerque Center
10:28PM 33.2081 -111.6578 284° West 478 550 36,000  Level Albuquerque Center
10:29PM 33.2419 -111.8119 285° West 479 551 36,000  Level Albuquerque Center
10:30PM 33.2742 -111.9661 284° West 477 549 36,000  Level Albuquerque Center
10:31PM 33.3133 -112.1503 284° West 475 547 36,000  Level Albuquerque Center
10:32PM 33.3450 -112.3064 284° West 480 552 36,000  Level Albuquerque Center
10:33PM 33.3781 -112.4603 284° West 477 549 36,000  Level Albuquerque Center
10:34PM 33.4108 -112.6169 284° West 475 547 36,000  Level Albuquerque Center
10:35PM 33.4425 -112.7692 284° West 475 547 36,000  Level Albuquerque Center
10:36PM 33.4700 -112.9222 282° West 473 544 36,000  Level Albuquerque Center
10:37PM 33.4917 -113.0761 280° West 472 543 36,000  Level Albuquerque Center
10:38PM 33.5150 -113.2317 280° West 474 545 36,000  Level Albuquerque Center
10:39PM 33.5369 -113.3847 280° West 473 544 36,000  Level Albuquerque Center
10:40PM 33.5606 -113.5378 281° West 470 541 36,000  Level Albuquerque Center
10:41PM 33.5825 -113.6919 280° West 470 541 36,000  Level Albuquerque Center
10:42PM 33.6053 -113.8497 280° West 472 543 36,000  Level Albuquerque Center
10:43PM 33.6267 -114.0053 279° West 473 544 36,000  Level Albuquerque Center
10:44PM 33.6494 -114.1611 280° West 475 547 36,000  Level Albuquerque Center
10:45PM 33.6736 -114.3214 280° West 477 549 36,000  Level Los Angeles Center
10:46PM 33.6947 -114.4781 279° West 479 551 36,000  Level Los Angeles Center
10:47PM 33.7378 -114.6622 286° West 482 555 36,000  Level Los Angeles Center
10:49PM 33.7947 -114.8081 295° West 486 559 36,000  Level Los Angeles Center
10:50PM 33.8525 -114.9561 295° West 489 563 36,000  Level Los Angeles Center
10:51PM 33.9214 -115.1317 295° West 487 560 36,000  Level Los Angeles Center
10:52PM 33.9792 -115.2786 295° West 488 562 36,000  Level Los Angeles Center
10:53PM 34.0361 -115.4267 295° West 489 563 36,000  Level Los Angeles Center
10:54PM 34.0922 -115.5761 294° West 490 564 36,000  Level Los Angeles Center
10:55PM 34.1464 -115.7228 294° West 483 556 36,000  Level Los Angeles Center
10:56PM 34.2100 -115.8886 295° West 479 551 36,000  Level Los Angeles Center
10:57PM 34.2656 -116.0375 294° West 483 556 36,000  Level Los Angeles Center
10:58PM 34.3197 -116.1839 294° West 480 552 36,000  Level Los Angeles Center
10:59PM 34.3736 -116.3306 294° West 479 551 36,000  Level Los Angeles Center
11:00PM 34.4389 -116.5039 295° West 471 542 36,000  Level Los Angeles Center
11:01PM 34.4922 -116.6500 294° West 476 548 36,000  Level Los Angeles Center
11:02PM 34.5453 -116.7961 294° West 473 544 36,000  Level Los Angeles Center
11:03PM 34.5983 -116.9425 294° West 474 545 36,000  Level Los Angeles Center
11:04PM 34.6517 -117.0894 294° West 475 547 36,000  Level Los Angeles Center
11:05PM 34.7044 -117.2372 294° West 475 547 36,000  Level Los Angeles Center
11:06PM 34.7581 -117.3872 294° West 479 551 36,000  Level Los Angeles Center
11:07PM 34.8106 -117.5367 293° West 478 550 36,000  Level Los Angeles Center
11:08PM 34.8633 -117.6878 293° West 479 551 36,000  Level Los Angeles Center
11:09PM 34.9158 -117.8367 293° West 472 543 36,000  Level Los Angeles Center
11:10PM 34.9694 -117.9844 294° West 477 549 36,000  Level Los Angeles Center
11:11PM 35.0303 -118.1567 293° West 463 533 36,000  Level Los Angeles Center
11:12PM 35.0817 -118.3033 293° West 468 539 36,000  Level Los Angeles Center
11:13PM 35.1319 -118.4500 293° West 467 537 36,000  Level Los Angeles Center
11:14PM 35.1831 -118.5900 294° West 467 537 36,000  Level Los Angeles Center
11:15PM 35.2333 -118.7342 293° West 464 534 36,000  Level Los Angeles Center
11:16PM 35.2831 -118.8817 292° West 471 542 36,000  Level Los Angeles Center
11:17PM 35.3339 -119.0306 293° West 474 545 36,000  Level Los Angeles Center
11:18PM 35.3942 -119.2072 293° West 471 542 36,000  Level Los Angeles Center
11:19PM 35.4447 -119.3544 293° West 470 541 36,000  Level Los Angeles Center
11:21PM 35.4933 -119.5006 292° West 467 537 36,000  Level Los Angeles Center
11:22PM 35.5511 -119.6767 292° West 465 535 36,000  Level Los Angeles Center
11:23PM 35.5983 -119.8208 292° West 461 531 36,000  Level Los Angeles Center
11:24PM 35.6450 -119.9644 292° West 465 535 36,000  Level Oakland Center
11:25PM 35.7033 -120.1400 292° West 466 536 36,000  Level Oakland Center
11:26PM 35.7514 -120.2883 292° West 472 543 36,000  Level Oakland Center
11:27PM 35.7981 -120.4328 292° West 462 532 36,000  Level Oakland Center
11:28PM 35.8447 -120.5786 292° West 462 532 36,000 -60 Level Oakland Center
11:29PM 35.8925 -120.7261 292° West 467 537 35,900  Descending Oakland Center
11:30PM 35.9686 -120.8578 306° West 483 556 36,000 -780 Climbing Oakland Center
11:31PM 36.0511 -120.9747 311° West 464 534 34,400 -2,040 Descending Oakland Center
11:32PM 36.1358 -121.0944 311° West 464 534 31,900 -2,400 Descending Oakland Center
11:33PM 36.2192 -121.2133 311° West 462 532 29,600 -2,100 Descending Oakland Center
11:34PM 36.3014 -121.3303 311° West 454 522 27,700 -1,920 Descending Oakland Center
11:35PM 36.3789 -121.4436 310° West 440 506 25,800 -2,040 Descending Oakland Center
11:36PM 36.4694 -121.5744 311° West 423 487 23,600 -2,040 Descending Oakland Center
11:37PM 36.5439 -121.6781 312° West 410 472 21,700 -1,800 Descending Oakland Center
11:38PM 36.6133 -121.7817 310° West 396 456 20,000 -1,860 Descending Oakland Center
11:39PM 36.6861 -121.8831 312° West 382 440 18,000 -1,920 Descending Oakland Center
11:40PM 36.7614 -121.9731 316° Northwest 378 435 16,200 -1,740 Descending Oakland Center
11:41PM 36.8500 -121.9833 355° North 360 414 14,900 -1,740 Descending Northern Cal TRACON
11:42PM 36.9575 -122.0206 345° North 353 406 12,800 -1,800 Descending Oakland Center
11:43PM 37.0542 -122.0444 349° North 353 406 10,900 -1,380 Descending Oakland Center
11:44PM 37.1464 -122.0703 347° North 339 390 10,100 -1,080 Descending Oakland Center
11:45PM 37.2292 -122.0911 349° North 305 351 8,800 -1,440 Descending Oakland Center
11:46PM 37.3094 -122.1131 348° North 297 342 7,200 -1,500 Descending Oakland Center
11:47PM 37.3789 -122.1306 349° North 258 297 5,800 -1,380 Descending Oakland Center
11:48PM 37.4392 -122.1464 348° North 227 261 4,500 -1,260 Descending Oakland Center
11:49PM 37.4833 -122.1667 340° North 195 224 3,700 -1,260 Descending Northern Cal TRACON
11:50PM 37.5333 -122.1833 345° North 186 214 2,400 -1,320 Descending Northern Cal TRACON